Time;durP1;ratioP1;P1;durP2;ratioP2;P2;SDS_P1;SDS_P2;PMS_P1;PMS_P2;Temp;Humidity;BMP_temperature;BMP_pressure;BME280_temperature;BME280_humidity;BME280_pressure;Samples;Min_cycle;Max_cycle;Signal;HPM_P1;HPM_P2
2022/10/30 00:00:51;;;;;;;12.97;7.90;;;;;;;;;;5100161;28;20225;-95
2022/10/30 00:03:18;;;;;;;14.60;7.40;;;;;;;;;;5097978;28;20232;-94
2022/10/30 00:05:46;;;;;;;9.07;6.80;;;;;;;;;;5091660;28;20273;-94
2022/10/30 00:08:16;;;;;;;12.57;8.20;;;;;;;;;;5078554;28;20257;-94
2022/10/30 00:10:43;;;;;;;10.77;6.93;;;;;;;;;;5088289;28;20205;-94
2022/10/30 00:13:10;;;;;;;9.53;7.10;;;;;;;;;;5083307;28;20233;-94
2022/10/30 00:15:38;;;;;;;7.73;6.63;;;;;;;;;;5077081;28;20219;-95
2022/10/30 00:18:05;;;;;;;11.33;7.33;;;;;;;;;;5075763;28;20237;-94
2022/10/30 00:20:32;;;;;;;12.07;7.30;;;;;;;;;;5076152;28;20249;-94
2022/10/30 00:22:59;;;;;;;12.07;6.90;;;;;;;;;;5075781;28;20233;-94
2022/10/30 00:25:28;;;;;;;9.40;6.67;;;;;;;;;;5075918;28;20197;-94
2022/10/30 00:27:55;;;;;;;11.43;6.87;;;;;;;;;;5076316;28;20236;-94
2022/10/30 00:30:22;;;;;;;11.83;7.17;;;;;;;;;;5076274;28;20684;-94
2022/10/30 00:32:49;;;;;;;12.23;7.00;;;;;;;;;;5076033;28;20735;-94
2022/10/30 00:35:16;;;;;;;17.30;7.17;;;;;;;;;;5076542;28;20202;-94
2022/10/30 00:37:43;;;;;;;9.87;6.90;;;;;;;;;;5075576;28;20233;-94
2022/10/30 00:40:14;;;;;;;9.93;7.13;;;;;;;;;;5075512;28;20217;-94
2022/10/30 00:42:43;;;;;;;7.97;6.47;;;;;;;;;;5075487;28;20229;-94
2022/10/30 00:45:12;;;;;;;10.87;6.70;;;;;;;;;;5075449;28;20205;-94
2022/10/30 00:47:41;;;;;;;8.97;7.00;;;;;;;;;;5075143;28;20240;-93
2022/10/30 00:50:09;;;;;;;8.37;6.30;;;;;;;;;;5075811;28;20232;-94
2022/10/30 00:52:38;;;;;;;13.23;7.33;;;;;;;;;;5074700;28;20233;-94
2022/10/30 00:55:08;;;;;;;10.50;6.73;;;;;;;;;;5075995;28;20209;-94
2022/10/30 00:57:36;;;;;;;9.93;7.30;;;;;;;;;;5075395;28;20295;-94
2022/10/30 01:00:05;;;;;;;8.63;6.50;;;;;;;;;;5074931;28;20229;-93
2022/10/30 01:02:32;;;;;;;9.37;7.27;;;;;;;;;;5075632;28;20684;-94
2022/10/30 01:04:59;;;;;;;11.00;6.63;;;;;;;;;;5074617;28;20311;-93
2022/10/30 01:07:26;;;;;;;10.37;7.17;;;;;;;;;;5074971;28;20209;-94
2022/10/30 01:09:53;;;;;;;10.93;7.10;;;;;;;;;;5074569;28;20699;-94
2022/10/30 01:12:20;;;;;;;12.90;7.30;;;;;;;;;;5075171;28;20215;-93
2022/10/30 01:14:49;;;;;;;11.10;6.57;;;;;;;;;;5074591;28;20292;-94
2022/10/30 01:17:30;;;;;;;9.00;6.67;;;;;;;;;;5092768;28;20207;-94
2022/10/30 01:20:01;;;;;;;12.47;7.30;;;;;;;;;;5083399;28;20221;-94
2022/10/30 01:22:34;;;;;;;10.53;7.00;;;;;;;;;;5074909;28;20561;-94
2022/10/30 01:25:07;;;;;;;11.10;6.60;;;;;;;;;;5072253;28;20564;-93
2022/10/30 01:27:39;;;;;;;8.63;6.20;;;;;;;;;;5074495;28;20185;-94
2022/10/30 01:30:15;;;;;;;8.63;6.47;;;;;;;;;;5074513;28;20230;-94
2022/10/30 01:32:47;;;;;;;8.53;6.33;;;;;;;;;;5074528;28;20216;-94
2022/10/30 01:35:17;;;;;;;10.80;7.07;;;;;;;;;;5074696;28;20201;-93
2022/10/30 01:38:13;;;;;;;9.10;6.00;;;;;;;;;;5074420;28;20661;-94
2022/10/30 01:40:40;;;;;;;9.93;6.77;;;;;;;;;;5074781;28;20228;-93
2022/10/30 01:43:09;;;;;;;12.07;7.17;;;;;;;;;;5071171;28;20701;-93
2022/10/30 01:45:46;;;;;;;12.03;7.23;;;;;;;;;;5054379;28;20644;-93
2022/10/30 01:48:25;;;;;;;10.50;7.23;;;;;;;;;;5060276;28;20209;-93
2022/10/30 01:50:56;;;;;;;9.40;6.73;;;;;;;;;;5055481;28;20226;-93
2022/10/30 01:53:36;;;;;;;9.90;6.30;;;;;;;;;;5058035;28;20218;-94
2022/10/30 01:56:07;;;;;;;10.07;6.60;;;;;;;;;;5055056;28;20190;-94
2022/10/30 01:58:37;;;;;;;8.47;6.23;;;;;;;;;;5054004;28;20238;-94
2022/10/30 02:01:05;;;;;;;7.80;6.67;;;;;;;;;;5054216;28;20236;-94
2022/10/30 02:03:33;;;;;;;8.97;6.00;;;;;;;;;;5064849;28;21669;-93
2022/10/30 02:06:00;;;;;;;7.63;5.67;;;;;;;;;;5068303;28;20209;-93
2022/10/30 02:08:27;;;;;;;7.20;6.33;;;;;;;;;;5073249;28;20233;-94
2022/10/30 02:10:55;;;;;;;8.57;6.20;;;;;;;;;;5074059;28;20252;-94
2022/10/30 02:13:22;;;;;;;10.00;6.00;;;;;;;;;;5068261;28;20226;-94
2022/10/30 02:15:53;;;;;;;12.73;5.67;;;;;;;;;;5073809;28;20212;-93
2022/10/30 02:18:20;;;;;;;11.33;5.73;;;;;;;;;;5072887;28;20225;-94
2022/10/30 02:20:49;;;;;;;7.30;5.80;;;;;;;;;;5074561;28;20651;-94
2022/10/30 02:23:17;;;;;;;10.67;5.93;;;;;;;;;;5073617;28;20243;-93
2022/10/30 02:25:45;;;;;;;9.83;6.20;;;;;;;;;;5074427;28;20212;-94
2022/10/30 02:28:12;;;;;;;13.07;6.67;;;;;;;;;;5078931;28;20241;-94
2022/10/30 02:30:39;;;;;;;17.20;6.27;;;;;;;;;;5080257;28;20224;-94
2022/10/30 02:33:06;;;;;;;7.67;6.17;;;;;;;;;;5083455;28;20680;-94
2022/10/30 02:35:34;;;;;;;11.77;6.40;;;;;;;;;;5100623;28;20200;-93
2022/10/30 02:38:02;;;;;;;8.13;5.67;;;;;;;;;;5099916;28;20337;-94
2022/10/30 02:40:29;;;;;;;7.77;5.77;;;;;;;;;;5100522;28;20220;-93
2022/10/30 02:42:56;;;;;;;10.53;6.30;;;;;;;;;;5098127;28;20251;-94
2022/10/30 02:45:23;;;;;;;12.20;6.03;;;;;;;;;;5080518;28;20193;-93
2022/10/30 02:47:51;;;;;;;12.00;6.30;;;;;;;;;;5079558;28;20712;-94
2022/10/30 02:50:18;;;;;;;14.57;6.67;;;;;;;;;;5080357;28;20217;-93
2022/10/30 02:52:45;;;;;;;10.80;6.30;;;;;;;;;;5079566;28;20243;-93
2022/10/30 02:55:13;;;;;;;12.00;6.03;;;;;;;;;;5080170;28;20744;-93
2022/10/30 02:57:40;;;;;;;10.67;6.23;;;;;;;;;;5079543;27;20233;-94
2022/10/30 03:00:08;;;;;;;10.47;6.23;;;;;;;;;;5080161;28;20221;-93
2022/10/30 03:02:35;;;;;;;8.70;5.97;;;;;;;;;;5079655;28;20233;-93
2022/10/30 03:05:02;;;;;;;11.27;6.10;;;;;;;;;;5106705;28;20216;-94
2022/10/30 03:07:29;;;;;;;10.77;6.63;;;;;;;;;;5112140;28;20221;-93
2022/10/30 03:09:56;;;;;;;8.30;5.60;;;;;;;;;;5094666;28;20247;-93
2022/10/30 03:12:25;;;;;;;8.37;5.50;;;;;;;;;;5079510;28;20257;-93
2022/10/30 03:14:52;;;;;;;8.37;5.60;;;;;;;;;;5065004;28;20230;-94
2022/10/30 03:17:19;;;;;;;9.90;5.60;;;;;;;;;;5059167;28;20237;-93
2022/10/30 03:19:46;;;;;;;7.40;5.70;;;;;;;;;;5064308;28;20217;-93
2022/10/30 03:22:13;;;;;;;9.00;5.60;;;;;;;;;;5079292;28;20233;-93
2022/10/30 03:24:40;;;;;;;6.77;5.40;;;;;;;;;;5079983;28;20206;-94
2022/10/30 03:27:07;;;;;;;9.00;6.03;;;;;;;;;;5079417;28;20236;-93
2022/10/30 03:29:35;;;;;;;8.87;5.40;;;;;;;;;;5085868;28;20719;-93
2022/10/30 03:32:02;;;;;;;8.83;5.93;;;;;;;;;;5080225;28;20236;-93
2022/10/30 03:34:30;;;;;;;9.67;5.70;;;;;;;;;;5080323;28;20225;-94
2022/10/30 03:36:57;;;;;;;6.33;5.73;;;;;;;;;;5080104;28;20233;-94
2022/10/30 03:39:24;;;;;;;8.07;5.90;;;;;;;;;;5075919;28;20217;-94
2022/10/30 03:41:51;;;;;;;9.80;5.80;;;;;;;;;;5057670;28;20238;-94
2022/10/30 03:44:18;;;;;;;10.07;5.93;;;;;;;;;;5056244;28;20216;-94
2022/10/30 03:46:47;;;;;;;8.43;5.60;;;;;;;;;;5056196;28;20702;-94
2022/10/30 03:49:14;;;;;;;7.00;5.27;;;;;;;;;;5056150;28;20202;-93
2022/10/30 03:51:41;;;;;;;7.67;5.80;;;;;;;;;;5073251;28;20708;-94
2022/10/30 03:54:08;;;;;;;6.70;5.90;;;;;;;;;;5076130;28;20224;-94
2022/10/30 03:56:35;;;;;;;6.83;5.57;;;;;;;;;;5075812;28;20598;-93
2022/10/30 03:59:02;;;;;;;8.30;6.10;;;;;;;;;;5075933;28;20201;-94
2022/10/30 04:01:30;;;;;;;10.37;5.90;;;;;;;;;;5075593;28;20205;-94
2022/10/30 04:03:58;;;;;;;10.23;5.97;;;;;;;;;;5075898;28;20207;-93
2022/10/30 04:06:26;;;;;;;11.33;6.00;;;;;;;;;;5075528;28;20219;-93
2022/10/30 04:08:54;;;;;;;12.83;6.37;;;;;;;;;;5075925;28;20205;-93
2022/10/30 04:11:22;;;;;;;10.13;6.73;;;;;;;;;;5062550;28;20698;-93
2022/10/30 04:13:49;;;;;;;11.57;7.17;;;;;;;;;;5058397;28;20704;-93
2022/10/30 04:16:27;;;;;;;9.57;6.87;;;;;;;;;;5074609;28;20220;-93
2022/10/30 04:18:54;;;;;;;13.83;8.80;;;;;;;;;;5080287;28;20189;-94
2022/10/30 04:21:22;;;;;;;12.07;7.00;;;;;;;;;;5095341;28;20224;-94
2022/10/30 04:23:49;;;;;;;10.40;7.00;;;;;;;;;;5095757;28;20200;-93
2022/10/30 04:26:16;;;;;;;15.57;7.30;;;;;;;;;;5094678;28;20197;-93
2022/10/30 04:28:43;;;;;;;7.13;6.43;;;;;;;;;;5074485;28;20202;-94
2022/10/30 04:31:10;;;;;;;18.53;7.50;;;;;;;;;;5075559;28;20226;-93
2022/10/30 04:33:38;;;;;;;15.80;7.13;;;;;;;;;;5075507;28;20248;-86
2022/10/30 04:36:05;;;;;;;12.90;8.20;;;;;;;;;;5075386;28;20209;-86
2022/10/30 04:38:34;;;;;;;9.87;6.93;;;;;;;;;;5073870;28;20662;-86
2022/10/30 04:41:01;;;;;;;10.03;7.00;;;;;;;;;;5074706;28;20225;-86
2022/10/30 04:43:28;;;;;;;11.47;6.33;;;;;;;;;;5074260;28;20244;-86
2022/10/30 04:45:55;;;;;;;8.93;6.20;;;;;;;;;;5074800;28;20201;-87
2022/10/30 04:48:22;;;;;;;10.87;6.13;;;;;;;;;;5087517;28;20236;-87
2022/10/30 04:50:49;;;;;;;10.07;6.10;;;;;;;;;;5080734;28;20742;-85
2022/10/30 04:53:17;;;;;;;7.87;6.43;;;;;;;;;;5055376;28;20242;-86
2022/10/30 04:55:45;;;;;;;10.17;6.33;;;;;;;;;;5074607;28;20228;-86
2022/10/30 04:58:13;;;;;;;7.87;5.37;;;;;;;;;;5089084;28;20233;-86
2022/10/30 05:00:40;;;;;;;10.17;6.43;;;;;;;;;;5094792;28;20235;-87
2022/10/30 05:03:07;;;;;;;7.87;6.00;;;;;;;;;;5090241;28;20237;-87
2022/10/30 05:05:34;;;;;;;8.90;5.70;;;;;;;;;;5074250;28;20205;-87
2022/10/30 05:08:01;;;;;;;7.87;5.23;;;;;;;;;;5087585;28;20229;-86
2022/10/30 05:10:28;;;;;;;9.03;5.80;;;;;;;;;;5094968;28;20752;-87
2022/10/30 05:12:58;;;;;;;12.73;5.70;;;;;;;;;;5094029;28;20233;-86
2022/10/30 05:15:25;;;;;;;7.13;6.33;;;;;;;;;;5078555;28;20256;-85
2022/10/30 05:17:53;;;;;;;8.73;6.13;;;;;;;;;;5073858;28;20244;-87
2022/10/30 05:20:20;;;;;;;6.53;5.30;;;;;;;;;;5074227;28;20271;-87
2022/10/30 05:22:47;;;;;;;7.73;5.23;;;;;;;;;;5073758;28;20244;-87
2022/10/30 05:25:15;;;;;;;6.83;5.27;;;;;;;;;;5072842;28;20206;-87
2022/10/30 05:27:42;;;;;;;7.73;5.03;;;;;;;;;;5073301;28;20237;-86
2022/10/30 05:30:11;;;;;;;7.10;5.10;;;;;;;;;;5074103;28;20221;-87
2022/10/30 05:32:38;;;;;;;9.67;5.50;;;;;;;;;;5073590;28;20607;-87
2022/10/30 05:35:06;;;;;;;7.10;4.97;;;;;;;;;;5072352;28;20217;-87
2022/10/30 05:37:33;;;;;;;4.20;3.80;;;;;;;;;;5073257;28;20247;-86
2022/10/30 05:40:00;;;;;;;4.53;4.03;;;;;;;;;;5073841;28;20237;-87
2022/10/30 05:42:27;;;;;;;8.50;4.33;;;;;;;;;;5073370;28;20233;-87
2022/10/30 05:44:54;;;;;;;6.73;4.83;;;;;;;;;;5073480;28;20224;-87
2022/10/30 05:47:22;;;;;;;7.03;4.73;;;;;;;;;;5073068;28;20240;-87
2022/10/30 05:49:49;;;;;;;6.23;4.67;;;;;;;;;;5073364;28;20221;-87
2022/10/30 05:52:16;;;;;;;6.70;4.80;;;;;;;;;;5069252;28;20230;-87
2022/10/30 05:54:43;;;;;;;6.00;4.60;;;;;;;;;;5073384;28;20301;-87
2022/10/30 05:57:10;;;;;;;10.53;5.07;;;;;;;;;;5073162;28;20233;-87
2022/10/30 05:59:37;;;;;;;4.57;4.17;;;;;;;;;;5073491;28;20233;-87
2022/10/30 06:02:04;;;;;;;5.33;3.80;;;;;;;;;;5069296;28;20241;-88
2022/10/30 06:04:33;;;;;;;5.37;4.27;;;;;;;;;;5053573;28;20204;-87
2022/10/30 06:07:00;;;;;;;4.07;3.77;;;;;;;;;;5053223;28;20243;-87
2022/10/30 06:09:27;;;;;;;4.10;3.70;;;;;;;;;;5064899;28;20228;-87
2022/10/30 06:11:54;;;;;;;3.93;3.63;;;;;;;;;;5073198;28;20237;-87
2022/10/30 06:14:21;;;;;;;4.80;4.40;;;;;;;;;;5073983;28;20232;-87
2022/10/30 06:16:49;;;;;;;5.33;4.50;;;;;;;;;;5072923;28;20244;-86
2022/10/30 06:19:24;;;;;;;7.17;4.27;;;;;;;;;;5072294;28;20583;-87
2022/10/30 06:21:53;;;;;;;4.80;4.40;;;;;;;;;;5073084;28;20236;-87
2022/10/30 06:24:21;;;;;;;9.13;5.10;;;;;;;;;;5073465;28;20198;-87
2022/10/30 06:26:48;;;;;;;5.83;4.90;;;;;;;;;;5072640;28;20320;-87
2022/10/30 06:29:15;;;;;;;6.13;4.70;;;;;;;;;;5064344;28;20630;-87
2022/10/30 06:31:44;;;;;;;7.83;5.07;;;;;;;;;;5073079;28;20235;-87
2022/10/30 06:34:12;;;;;;;5.93;5.20;;;;;;;;;;5073116;28;20181;-86
2022/10/30 06:36:39;;;;;;;6.23;4.67;;;;;;;;;;5072582;28;20237;-88
2022/10/30 06:39:07;;;;;;;5.60;4.90;;;;;;;;;;5072827;28;20201;-87
2022/10/30 06:41:53;;;;;;;5.60;4.67;;;;;;;;;;5072317;28;20237;-86
2022/10/30 06:44:20;;;;;;;4.70;4.30;;;;;;;;;;5080340;28;20197;-87
2022/10/30 06:46:47;;;;;;;6.37;4.03;;;;;;;;;;5073978;28;20238;-86
2022/10/30 06:49:14;;;;;;;4.67;4.27;;;;;;;;;;5074639;28;20212;-86
2022/10/30 06:51:41;;;;;;;5.53;4.40;;;;;;;;;;5073956;28;20233;-86
2022/10/30 06:54:10;;;;;;;6.23;4.17;;;;;;;;;;5072787;28;20201;-86
2022/10/30 06:56:37;;;;;;;6.67;4.00;;;;;;;;;;5072383;28;20240;-87
2022/10/30 06:59:04;;;;;;;7.73;4.10;;;;;;;;;;5072529;28;20208;-86
2022/10/30 07:01:31;;;;;;;4.83;4.00;;;;;;;;;;5071717;28;20194;-86
2022/10/30 07:03:58;;;;;;;6.17;3.60;;;;;;;;;;5072343;28;20215;-85
2022/10/30 07:06:25;;;;;;;7.30;3.20;;;;;;;;;;5071689;28;20190;-84
2022/10/30 07:08:52;;;;;;;11.63;3.90;;;;;;;;;;5071824;28;20217;-85
2022/10/30 07:11:21;;;;;;;7.43;3.50;;;;;;;;;;5051513;28;20219;-85
2022/10/30 07:13:48;;;;;;;10.73;4.40;;;;;;;;;;5052942;28;20198;-85
2022/10/30 07:16:21;;;;;;;10.53;4.03;;;;;;;;;;5056690;28;20222;-87
2022/10/30 07:18:48;;;;;;;7.93;3.93;;;;;;;;;;5066984;28;20204;-86
2022/10/30 07:21:15;;;;;;;7.50;4.27;;;;;;;;;;5085316;28;20239;-87
2022/10/30 07:23:42;;;;;;;5.07;4.33;;;;;;;;;;5096559;28;20205;-86
2022/10/30 07:26:09;;;;;;;4.60;4.00;;;;;;;;;;5076557;28;20206;-89
2022/10/30 07:28:38;;;;;;;6.57;4.33;;;;;;;;;;5055825;28;20706;-88
2022/10/30 07:31:12;;;;;;;6.67;4.57;;;;;;;;;;5065223;28;20214;-88
2022/10/30 07:33:39;;;;;;;6.83;5.87;;;;;;;;;;5076533;28;20278;-88
2022/10/30 07:36:06;;;;;;;10.23;5.33;;;;;;;;;;5072070;28;20222;-88
2022/10/30 07:38:33;;;;;;;8.87;5.73;;;;;;;;;;5074857;28;20698;-87
2022/10/30 07:41:01;;;;;;;9.10;6.53;;;;;;;;;;5075966;28;20797;-85
2022/10/30 07:43:34;;;;;;;9.90;7.00;;;;;;;;;;5075117;28;20229;-85
2022/10/30 07:46:03;;;;;;;10.90;6.57;;;;;;;;;;5075595;28;20186;-86
2022/10/30 07:48:30;;;;;;;10.60;8.60;;;;;;;;;;5075292;28;20240;-87
2022/10/30 07:50:57;;;;;;;11.83;8.57;;;;;;;;;;5075278;28;20233;-85
2022/10/30 07:53:24;;;;;;;16.33;8.57;;;;;;;;;;5074575;28;20236;-84
2022/10/30 07:55:51;;;;;;;11.23;8.50;;;;;;;;;;5075291;28;20214;-85
2022/10/30 07:58:18;;;;;;;12.30;9.00;;;;;;;;;;5074372;28;20229;-84
2022/10/30 08:00:46;;;;;;;15.97;9.63;;;;;;;;;;5074950;28;20229;-85
2022/10/30 08:03:22;;;;;;;17.33;10.40;;;;;;;;;;5075057;28;20229;-85
2022/10/30 08:05:49;;;;;;;15.80;10.87;;;;;;;;;;5075307;28;20212;-86
2022/10/30 08:08:16;;;;;;;18.77;10.83;;;;;;;;;;5074518;28;20233;-86
2022/10/30 08:10:43;;;;;;;20.10;11.90;;;;;;;;;;5075564;28;20260;-85
2022/10/30 08:13:13;;;;;;;20.53;12.57;;;;;;;;;;5075192;28;20233;-86
2022/10/30 08:15:40;;;;;;;21.03;13.77;;;;;;;;;;5075666;28;20217;-86
2022/10/30 08:18:07;;;;;;;22.67;14.17;;;;;;;;;;5074472;28;20237;-87
2022/10/30 08:20:35;;;;;;;26.00;13.90;;;;;;;;;;5074978;28;20247;-86
2022/10/30 08:23:02;;;;;;;23.47;13.53;;;;;;;;;;5074513;28;20237;-87
2022/10/30 08:25:48;;;;;;;21.87;14.00;;;;;;;;;;5074686;28;20197;-88
2022/10/30 08:28:15;;;;;;;24.40;14.40;;;;;;;;;;5074893;28;20232;-86
2022/10/30 08:30:42;;;;;;;34.40;16.87;;;;;;;;;;5074974;28;20256;-85
2022/10/30 08:33:13;;;;;;;28.07;16.57;;;;;;;;;;5074134;28;20233;-85
2022/10/30 08:35:47;;;;;;;28.60;17.03;;;;;;;;;;5074589;28;20214;-84
2022/10/30 08:38:14;;;;;;;28.03;17.67;;;;;;;;;;5073396;28;20647;-83
2022/10/30 08:40:41;;;;;;;28.00;19.20;;;;;;;;;;5073980;28;20214;-84
2022/10/30 08:43:08;;;;;;;28.07;18.73;;;;;;;;;;5073194;28;20229;-83
2022/10/30 08:45:35;;;;;;;28.40;18.17;;;;;;;;;;5073629;28;20669;-83
2022/10/30 08:48:04;;;;;;;29.43;18.97;;;;;;;;;;5072776;28;20614;-83
2022/10/30 08:50:32;;;;;;;29.87;19.50;;;;;;;;;;5073062;28;20703;-82
2022/10/30 08:53:03;;;;;;;34.37;19.60;;;;;;;;;;5055935;28;20234;-82
2022/10/30 08:55:31;;;;;;;34.93;20.47;;;;;;;;;;5061268;28;20209;-83
2022/10/30 08:57:58;;;;;;;35.07;22.27;;;;;;;;;;5072125;28;20232;-83
2022/10/30 09:00:25;;;;;;;35.73;23.47;;;;;;;;;;5082981;28;20585;-82
2022/10/30 09:02:52;;;;;;;33.13;21.50;;;;;;;;;;5075661;28;20233;-82
2022/10/30 09:05:20;;;;;;;31.10;21.60;;;;;;;;;;5072842;28;20224;-82
2022/10/30 09:07:47;;;;;;;34.90;21.67;;;;;;;;;;5071795;28;20725;-82
2022/10/30 09:10:16;;;;;;;33.13;21.30;;;;;;;;;;5073064;28;20221;-82
2022/10/30 09:12:43;;;;;;;34.93;21.67;;;;;;;;;;5072848;28;20233;-83
2022/10/30 09:15:10;;;;;;;31.13;21.53;;;;;;;;;;5073230;28;20581;-83
2022/10/30 09:17:37;;;;;;;29.73;21.43;;;;;;;;;;5072456;28;20237;-82
2022/10/30 09:20:04;;;;;;;33.83;23.20;;;;;;;;;;5058691;28;20252;-86
2022/10/30 09:22:32;;;;;;;31.40;21.33;;;;;;;;;;5071350;28;20232;-85
2022/10/30 09:24:59;;;;;;;31.87;21.23;;;;;;;;;;5078460;28;20209;-84
2022/10/30 09:27:27;;;;;;;30.30;20.27;;;;;;;;;;5072741;28;20237;-84
2022/10/30 09:29:56;;;;;;;27.43;20.77;;;;;;;;;;5073142;28;20221;-86
2022/10/30 09:32:23;;;;;;;29.83;20.27;;;;;;;;;;5072895;28;20233;-85
2022/10/30 09:34:55;;;;;;;29.57;19.30;;;;;;;;;;5073490;28;20209;-85
2022/10/30 09:37:23;;;;;;;32.67;19.57;;;;;;;;;;5072060;28;20705;-84
2022/10/30 09:39:50;;;;;;;30.23;21.63;;;;;;;;;;5073214;28;20565;-84
2022/10/30 09:42:23;;;;;;;29.80;20.00;;;;;;;;;;5072578;28;20732;-84
2022/10/30 09:44:55;;;;;;;34.17;19.80;;;;;;;;;;5072296;28;20201;-84
2022/10/30 09:47:27;;;;;;;29.13;19.77;;;;;;;;;;5073567;28;20647;-83
2022/10/30 09:50:02;;;;;;;31.17;20.80;;;;;;;;;;5072714;28;20229;-84
2022/10/30 09:52:31;;;;;;;26.83;19.37;;;;;;;;;;5072258;28;20232;-84
2022/10/30 09:55:08;;;;;;;31.60;20.03;;;;;;;;;;5073136;28;20198;-85
2022/10/30 09:57:42;;;;;;;27.30;19.67;;;;;;;;;;5072193;28;20613;-85
2022/10/30 10:00:12;;;;;;;38.37;18.97;;;;;;;;;;5073035;28;20224;-84
2022/10/30 10:02:46;;;;;;;23.10;17.07;;;;;;;;;;5072474;28;20236;-84
2022/10/30 10:05:17;;;;;;;27.73;17.03;;;;;;;;;;5072495;28;21873;-84
2022/10/30 10:07:47;;;;;;;23.30;15.30;;;;;;;;;;5071673;28;20760;-83
2022/10/30 10:10:18;;;;;;;19.37;15.07;;;;;;;;;;5072166;28;20213;-84
2022/10/30 10:12:46;;;;;;;23.20;14.63;;;;;;;;;;5071565;28;20244;-85
2022/10/30 10:15:17;;;;;;;20.27;14.67;;;;;;;;;;5072108;28;20654;-83
2022/10/30 10:17:46;;;;;;;17.50;12.03;;;;;;;;;;5071591;28;20237;-84
2022/10/30 10:20:16;;;;;;;20.57;11.57;;;;;;;;;;5072359;28;20279;-83
2022/10/30 10:22:46;;;;;;;15.17;10.73;;;;;;;;;;5071685;28;20233;-85
2022/10/30 10:25:20;;;;;;;20.20;10.97;;;;;;;;;;5072257;28;20197;-86
2022/10/30 10:27:54;;;;;;;16.60;10.17;;;;;;;;;;5070754;28;20259;-86
2022/10/30 10:30:23;;;;;;;15.37;9.63;;;;;;;;;;5072694;28;20233;-84
2022/10/30 10:32:59;;;;;;;12.70;8.57;;;;;;;;;;5072290;28;20236;-89
2022/10/30 10:35:47;;;;;;;15.63;9.00;;;;;;;;;;5073565;28;20200;-91
2022/10/30 10:38:18;;;;;;;14.63;9.03;;;;;;;;;;5072721;28;20235;-88
2022/10/30 10:40:51;;;;;;;13.90;9.00;;;;;;;;;;5073380;28;20217;-89
2022/10/30 10:43:22;;;;;;;12.33;7.97;;;;;;;;;;5073812;28;20237;-90
2022/10/30 10:45:53;;;;;;;16.63;7.13;;;;;;;;;;5073512;28;20205;-88
2022/10/30 10:48:42;;;;;;;14.63;7.97;;;;;;;;;;5074222;28;20241;-90
2022/10/30 10:51:11;;;;;;;10.73;6.73;;;;;;;;;;5076959;28;20244;-88
2022/10/30 10:53:41;;;;;;;13.73;7.63;;;;;;;;;;5075068;28;20221;-88
2022/10/30 10:56:10;;;;;;;8.60;6.53;;;;;;;;;;5074997;28;20221;-86
2022/10/30 10:58:40;;;;;;;12.20;6.57;;;;;;;;;;5072590;28;20241;-86
2022/10/30 11:01:13;;;;;;;14.97;7.40;;;;;;;;;;5076603;28;20709;-87
2022/10/30 11:03:46;;;;;;;16.43;6.40;;;;;;;;;;5076220;28;20216;-86
2022/10/30 11:06:20;;;;;;;10.77;6.33;;;;;;;;;;5075848;28;20235;-84
2022/10/30 11:08:47;;;;;;;7.80;6.30;;;;;;;;;;5075342;28;20727;-84
2022/10/30 11:11:15;;;;;;;8.57;6.10;;;;;;;;;;5075584;28;20229;-84
2022/10/30 11:13:42;;;;;;;9.33;5.83;;;;;;;;;;5075263;28;20206;-86
2022/10/30 11:16:16;;;;;;;9.00;5.70;;;;;;;;;;5078366;28;20228;-87
2022/10/30 11:18:45;;;;;;;7.90;5.90;;;;;;;;;;5076528;28;20224;-86
2022/10/30 11:21:15;;;;;;;11.23;5.20;;;;;;;;;;5076476;28;20702;-87
2022/10/30 11:23:43;;;;;;;9.73;6.00;;;;;;;;;;5075720;28;20673;-87
2022/10/30 11:26:28;;;;;;;12.07;5.47;;;;;;;;;;5076396;28;20209;-89
2022/10/30 11:28:56;;;;;;;11.93;6.90;;;;;;;;;;5077321;28;20257;-91
2022/10/30 11:31:33;;;;;;;9.60;6.53;;;;;;;;;;5075542;28;20221;-87
2022/10/30 11:34:00;;;;;;;10.30;5.68;;;;;;;;;;5058481;28;20248;-87
2022/10/30 11:36:27;;;;;;;11.20;6.10;;;;;;;;;;5075572;28;20221;-88
2022/10/30 11:38:57;;;;;;;10.07;5.63;;;;;;;;;;5076015;28;20560;-88
2022/10/30 11:41:24;;;;;;;11.55;5.82;;;;;;;;;;5075211;28;20217;-88
2022/10/30 11:43:52;;;;;;;12.77;5.80;;;;;;;;;;5090304;28;20193;-82
2022/10/30 11:54:19;;;;;;;9.55;5.55;;;;;;;;;;5973200;22;20240;-83
2022/10/30 12:07:37;;;;;;;7.63;5.22;;;;;;;;;;5737656;22;20410;-94
2022/10/30 12:10:10;;;;;;;7.68;4.20;;;;;;;;;;5084716;28;20221;-88
2022/10/30 12:12:47;;;;;;;9.25;5.22;;;;;;;;;;5119377;28;20240;-80
2022/10/30 12:15:19;;;;;;;9.05;4.65;;;;;;;;;;5121837;28;20200;-86
2022/10/30 12:18:00;;;;;;;7.10;4.82;;;;;;;;;;5103896;28;20245;-86
2022/10/30 12:29:39;;;;;;;6.78;4.03;;;;;;;;;;5004001;28;20318;-83
2022/10/30 12:32:09;;;;;;;9.85;4.40;;;;;;;;;;5027620;28;20230;-84
2022/10/30 12:34:44;;;;;;;11.02;4.60;;;;;;;;;;5060564;28;20171;-84
2022/10/30 13:16:03;;;;;;;6.03;3.70;;;;;;;;;;5036507;23;20606;-81
2022/10/30 13:18:31;;;;;;;6.38;3.78;;;;;;;;;;5012076;28;20634;-82
2022/10/30 13:21:06;;;;;;;8.45;3.80;;;;;;;;;;5013216;28;20214;-83
2022/10/30 13:23:37;;;;;;;15.88;4.15;;;;;;;;;;5012449;28;20231;-91
2022/10/30 13:26:08;;;;;;;7.55;4.00;;;;;;;;;;5031151;28;20234;-87
2022/10/30 13:28:38;;;;;;;5.10;3.50;;;;;;;;;;5032157;28;20222;-87
2022/10/30 13:31:12;;;;;;;6.88;3.47;;;;;;;;;;5032288;28;20191;-86
2022/10/30 13:33:44;;;;;;;3.53;2.42;;;;;;;;;;5032091;28;20221;-86
2022/10/30 13:36:14;;;;;;;5.35;2.53;;;;;;;;;;5032710;28;20227;-88
2022/10/30 13:38:44;;;;;;;4.43;2.72;;;;;;;;;;5032389;28;20234;-92
2022/10/30 13:41:17;;;;;;;4.15;2.45;;;;;;;;;;5033814;28;20195;-90
2022/10/30 13:43:49;;;;;;;4.07;2.30;;;;;;;;;;5033785;28;20226;-89
2022/10/30 13:46:26;;;;;;;6.43;3.28;;;;;;;;;;5033892;28;20241;-89
2022/10/30 13:48:58;;;;;;;4.32;2.47;;;;;;;;;;5024810;28;20689;-88
2022/10/30 13:51:34;;;;;;;6.95;2.72;;;;;;;;;;5032377;28;20202;-88
2022/10/30 13:54:05;;;;;;;5.25;2.75;;;;;;;;;;5033038;28;20187;-89
2022/10/30 13:56:32;;;;;;;6.00;3.10;;;;;;;;;;5032314;28;20215;-88
2022/10/30 13:59:05;;;;;;;5.47;2.97;;;;;;;;;;5032737;28;20207;-89
2022/10/30 14:01:38;;;;;;;5.50;3.00;;;;;;;;;;5033454;28;23147;-90
2022/10/30 14:04:06;;;;;;;8.48;2.70;;;;;;;;;;5021525;28;20197;-90
2022/10/30 14:06:40;;;;;;;6.70;2.60;;;;;;;;;;5038351;28;20288;-90
2022/10/30 14:09:12;;;;;;;3.83;3.00;;;;;;;;;;5045622;28;20205;-88
2022/10/30 14:11:40;;;;;;;5.68;3.10;;;;;;;;;;5066149;28;20612;-88
2022/10/30 14:14:24;;;;;;;6.13;2.70;;;;;;;;;;5067622;28;20632;-88
2022/10/30 14:17:06;;;;;;;7.60;2.95;;;;;;;;;;5043227;28;20238;-89
2022/10/30 14:19:55;;;;;;;7.70;2.53;;;;;;;;;;5034573;28;20203;-88
2022/10/30 14:22:25;;;;;;;7.07;2.95;;;;;;;;;;5034092;28;20264;-88
2022/10/30 14:24:52;;;;;;;9.25;3.13;;;;;;;;;;5049569;28;20736;-87
2022/10/30 14:27:22;;;;;;;9.35;3.22;;;;;;;;;;5053197;28;20229;-87
2022/10/30 14:29:50;;;;;;;4.97;2.40;;;;;;;;;;5034073;28;20194;-87
2022/10/30 14:32:34;;;;;;;7.65;3.13;;;;;;;;;;5029037;28;20639;-86
2022/10/30 14:35:02;;;;;;;6.60;3.13;;;;;;;;;;5028253;28;20222;-88
2022/10/30 14:37:47;;;;;;;9.02;3.55;;;;;;;;;;5031022;28;20607;-88
2022/10/30 14:40:38;;;;;;;7.25;2.70;;;;;;;;;;5031501;28;20194;-87
2022/10/30 14:43:09;;;;;;;5.43;2.80;;;;;;;;;;5011432;28;20612;-90
2022/10/30 14:45:42;;;;;;;5.15;2.45;;;;;;;;;;5019423;28;20276;-90
2022/10/30 14:48:15;;;;;;;8.63;3.13;;;;;;;;;;5033979;28;20807;-88
2022/10/30 14:50:47;;;;;;;8.48;2.70;;;;;;;;;;5036936;28;20189;-89
2022/10/30 14:53:41;;;;;;;9.20;3.30;;;;;;;;;;5031320;28;20317;-84
2022/10/30 14:56:17;;;;;;;7.35;3.08;;;;;;;;;;4982871;28;20227;-84
2022/10/30 14:58:44;;;;;;;4.28;2.65;;;;;;;;;;5029413;28;20602;-84
2022/10/30 15:01:25;;;;;;;7.65;3.20;;;;;;;;;;5031274;28;20206;-84
2022/10/30 15:03:55;;;;;;;4.15;2.50;;;;;;;;;;5012755;28;20306;-84
2022/10/30 15:06:25;;;;;;;7.88;3.00;;;;;;;;;;5028678;28;20580;-84
2022/10/30 15:09:09;;;;;;;7.65;2.80;;;;;;;;;;5030770;28;20264;-85
2022/10/30 15:11:55;;;;;;;6.90;2.58;;;;;;;;;;5027670;28;20222;-84
2022/10/30 15:14:28;;;;;;;5.80;2.97;;;;;;;;;;5046627;28;20226;-84
2022/10/30 15:55:53;;;;;;;6.82;4.00;;;;;;;;;;5056942;28;20191;-84
2022/10/30 17:36:40;;;;;;;11.30;6.17;;;;;;;;;;5044447;28;20639;-85
2022/10/30 17:39:07;;;;;;;10.17;6.67;;;;;;;;;;5068190;28;20218;-84
2022/10/30 17:41:34;;;;;;;11.37;6.77;;;;;;;;;;5052045;28;20241;-84
2022/10/30 17:44:02;;;;;;;10.87;7.10;;;;;;;;;;5052004;28;20202;-84
2022/10/30 18:13:43;;;;;;;8.57;6.63;;;;;;;;;;5630996;22;20230;-89
2022/10/30 18:16:33;;;;;;;8.50;5.63;;;;;;;;;;4995627;28;20212;-89
2022/10/30 18:19:00;;;;;;;8.10;5.17;;;;;;;;;;5003035;28;20224;-90
2022/10/30 18:21:27;;;;;;;7.80;6.23;;;;;;;;;;5012289;28;20672;-90
2022/10/30 18:23:57;;;;;;;7.07;5.27;;;;;;;;;;5012338;28;20789;-89
2022/10/30 18:26:26;;;;;;;11.53;6.47;;;;;;;;;;5012213;28;20697;-90
2022/10/30 18:28:55;;;;;;;8.70;5.67;;;;;;;;;;5010641;28;20206;-90
2022/10/30 18:31:26;;;;;;;8.50;5.40;;;;;;;;;;5013712;28;20664;-90
2022/10/30 18:33:53;;;;;;;14.60;6.00;;;;;;;;;;5014244;28;20208;-90
2022/10/30 18:36:21;;;;;;;8.20;5.40;;;;;;;;;;5018841;28;20207;-90
2022/10/30 18:38:48;;;;;;;7.80;4.90;;;;;;;;;;5012684;28;20219;-88
2022/10/30 18:41:16;;;;;;;6.23;4.53;;;;;;;;;;5011984;28;20191;-88